»·PEaware :: N104CT KASE-KSLC

N104CT :: KASE-KSLC

FLIGHT INFORMATION

Flight Status: Arrived
Operator: Privately registered:
United States
More flights under this callsign
Pilot: Eric M. (17640)
Aircraft: CESSNA 750 CITATION 10
(C750)
More flights by this aircraft type
Origin: KASE Aspen-Pitkin Co/Sardy
United States
Destination: KSLC Salt Lake City Intl
United States
More flights between these airports :: More routes between these airports
Route: +LINDZ8 JNC HELPR LEEHY5
File this flight plan on PilotEdge
Remarks:
Altitude:
(Current/Filed)
30,000ft
Speed:
(Current/Filed)
450kts
Departed: 13-Jan-18 10:29 AM
Arrived: 13-Jan-18 11:29 AM
Distance/Time
Traveled:
252nm/1:00
Distance/Time
To Go:
Arrived

Flight Plot

Page will automatically refresh every two minutes.

Flight plan parsing failed; only flown route is shown


Map Options




Map Legend


Flown Route
Filed Route
Departure Airport
Arrival Airport
Navaid (VOR, NDB)
Fix

Horizontal Profiles

Position Reports

Time Latitude Longitude Heading Altitude Ground
Speed
13-Jan-18 10:20 39.219698 -106.865271 159 7824ft 0kts
13-Jan-18 10:21 39.219697 -106.865271 159 7824ft 0kts
13-Jan-18 10:22 39.219696 -106.865270 159 7824ft 0kts
13-Jan-18 10:23 39.219694 -106.865270 159 7824ft 0kts
13-Jan-18 10:24 39.219693 -106.865269 159 7824ft 0kts
13-Jan-18 10:25 39.219692 -106.865269 159 7824ft 0kts
13-Jan-18 10:26 39.219691 -106.865268 159 7824ft 0kts
13-Jan-18 10:27 39.219690 -106.865268 159 7824ft 0kts
13-Jan-18 10:28 39.219689 -106.865267 159 7824ft 0kts
13-Jan-18 10:29 39.219688 -106.865267 159 7824ft 0kts
13-Jan-18 10:30 39.219687 -106.865266 159 7824ft 0kts
13-Jan-18 10:31 39.218292 -106.865022 175 7824ft 14kts
13-Jan-18 10:32 39.212464 -106.862557 162 7824ft 17kts
13-Jan-18 10:33 39.212099 -106.862486 209 7824ft 0kts
13-Jan-18 10:34 39.212031 -106.863559 336 7824ft 0kts
13-Jan-18 10:35 39.234397 -106.874294 338 8004ft 187kts
13-Jan-18 10:36 39.295598 -106.880616 333 12112ft 222kts
13-Jan-18 10:37 39.325021 -106.961475 290 15211ft 283kts
13-Jan-18 10:38 39.355854 -107.058206 298 17878ft 295kts
13-Jan-18 10:39 39.387842 -107.159520 284 20070ft 329kts
13-Jan-18 10:40 39.365139 -107.288541 259 20637ft 400kts
13-Jan-18 10:41 39.336879 -107.419422 264 24253ft 358kts
13-Jan-18 10:42 39.312946 -107.547824 263 26320ft 389kts
13-Jan-18 10:43 39.284610 -107.688793 262 28564ft 399kts
13-Jan-18 10:44 39.256446 -107.830584 262 30388ft 425kts
13-Jan-18 10:45 39.225475 -107.986741 261 30566ft 471kts
13-Jan-18 10:46 39.191298 -108.154786 261 30556ft 493kts
13-Jan-18 10:47 39.157627 -108.319907 261 30552ft 479kts
13-Jan-18 10:48 39.123045 -108.486576 260 30550ft 484kts
13-Jan-18 10:49 39.088007 -108.654879 260 30550ft 487kts
13-Jan-18 10:50 39.069384 -108.823965 283 30553ft 470kts
13-Jan-18 10:51 39.128641 -108.969955 304 30555ft 462kts
13-Jan-18 10:52 39.192481 -109.114579 298 30551ft 465kts
13-Jan-18 10:53 39.249795 -109.263638 298 30541ft 460kts
13-Jan-18 10:54 39.308335 -109.409376 298 30543ft 453kts
13-Jan-18 10:55 39.365765 -109.553601 298 30541ft 451kts
13-Jan-18 10:56 39.423001 -109.697829 298 30538ft 449kts
13-Jan-18 10:57 39.479525 -109.841759 298 30538ft 449kts
13-Jan-18 10:58 39.535960 -109.986340 298 30536ft 448kts
13-Jan-18 10:59 39.592151 -110.130623 298 30533ft 449kts
13-Jan-18 11:00 39.648372 -110.275276 298 30531ft 450kts
13-Jan-18 11:01 39.704754 -110.420054 298 30528ft 450kts
13-Jan-18 11:02 39.760677 -110.566044 298 30525ft 450kts
13-Jan-18 11:03 39.816347 -110.712405 297 30525ft 451kts
13-Jan-18 11:04 39.871962 -110.858693 297 30530ft 452kts
13-Jan-18 11:05 39.927680 -111.005339 297 30542ft 452kts
13-Jan-18 11:06 39.980889 -111.146079 297 30555ft 381kts
13-Jan-18 11:07 40.025813 -111.265767 297 28558ft 363kts
13-Jan-18 11:08 40.068983 -111.382130 297 26629ft 349kts
13-Jan-18 11:09 40.110937 -111.494643 296 24806ft 341kts
13-Jan-18 11:10 40.151911 -111.604845 296 23084ft 336kts
13-Jan-18 11:11 40.193318 -111.716574 297 21249ft 342kts
13-Jan-18 11:12 40.233856 -111.827183 297 19454ft 331kts
13-Jan-18 11:13 40.274040 -111.934311 306 17699ft 324kts
13-Jan-18 11:14 40.346495 -111.995815 332 17596ft 327kts
13-Jan-18 11:15 40.431049 -112.053300 340 17581ft 356kts
13-Jan-18 11:16 40.532122 -112.065364 354 17582ft 369kts
13-Jan-18 11:17 40.634971 -112.077453 351 17579ft 374kts
13-Jan-18 11:18 40.731726 -112.089132 351 17568ft 285kts
13-Jan-18 11:19 40.805080 -112.097553 351 15502ft 272kts
13-Jan-18 11:20 40.880536 -112.106655 352 13515ft 270kts
13-Jan-18 11:21 40.950196 -112.115109 352 12784ft 242kts
13-Jan-18 11:22 41.018714 -112.123189 353 11629ft 249kts
13-Jan-18 11:23 41.089202 -112.132073 353 8159ft 263kts
13-Jan-18 11:24 41.151034 -112.128875 47 7027ft 203kts
13-Jan-18 11:25 41.163154 -112.049531 82 7978ft 234kts
13-Jan-18 11:26 41.172216 -111.961385 82 7980ft 246kts
13-Jan-18 11:27 41.167487 -111.876338 133 9046ft 230kts
13-Jan-18 11:28 41.108766 -111.896014 206 10975ft 232kts
13-Jan-18 11:29 41.040029 -111.923660 193 11798ft 294kts
13-Jan-18 11:30 40.976136 -111.943758 195 10306ft 161kts
13-Jan-18 11:31 40.932366 -111.955375 193 7959ft 150kts
13-Jan-18 11:32 40.889784 -111.961633 185 6642ft 152kts
13-Jan-18 11:33 40.848616 -111.961872 180 5540ft 136kts
13-Jan-18 11:34 40.809685 -111.961969 178 4589ft 138kts
13-Jan-18 11:35 40.783329 -111.961902 184 4231ft 26kts
13-Jan-18 11:36 40.782380 -111.959947 90 4231ft 15kts
13-Jan-18 11:37 40.784718 -111.958692 11 4231ft 0kts
13-Jan-18 11:38 40.784718 -111.958691 11 4231ft 0kts
13-Jan-18 11:39 40.784718 -111.958691 11 4231ft 0kts

Navigation Log

Ident Type
Flight plan parsing failed, navigation log unavailable